createdAt,value
2022-10-15T00:01:45.776Z,21.32
2022-10-15T00:04:13.664Z,21.30
2022-10-15T00:06:41.427Z,21.30
2022-10-15T00:09:09.243Z,21.30
2022-10-15T00:11:37.023Z,21.30
2022-10-15T00:14:04.829Z,21.29
2022-10-15T00:16:32.913Z,21.29
2022-10-15T00:19:00.768Z,21.28
2022-10-15T00:21:28.946Z,21.26
2022-10-15T00:23:56.803Z,21.26
2022-10-15T00:26:24.684Z,21.26
2022-10-15T00:28:52.671Z,21.24
2022-10-15T00:31:21.062Z,21.25
2022-10-15T00:33:48.904Z,21.24
2022-10-15T00:36:16.702Z,21.23
2022-10-15T00:38:44.567Z,21.25
2022-10-15T00:41:12.285Z,21.24
2022-10-15T00:43:40.078Z,21.25
2022-10-15T00:46:07.853Z,21.25
2022-10-15T00:48:35.681Z,21.25
2022-10-15T00:51:03.634Z,21.24
2022-10-15T00:53:31.708Z,21.22
2022-10-15T00:55:59.547Z,21.23
2022-10-15T00:58:28.571Z,21.20
2022-10-15T01:00:56.356Z,21.22
2022-10-15T01:03:24.127Z,21.22
2022-10-15T01:05:51.829Z,21.22
2022-10-15T01:08:20.669Z,21.22
2022-10-15T01:10:48.617Z,21.22
2022-10-15T01:13:16.358Z,21.22
2022-10-15T01:15:44.191Z,21.20
2022-10-15T01:18:11.889Z,21.20
2022-10-15T01:20:39.647Z,21.20
2022-10-15T01:23:07.391Z,21.18
2022-10-15T01:25:35.157Z,21.21
2022-10-15T01:28:02.903Z,21.20
2022-10-15T01:30:30.615Z,21.20
2022-10-15T01:32:58.734Z,21.19
2022-10-15T01:35:26.413Z,21.20
2022-10-15T01:37:54.161Z,21.20
2022-10-15T01:40:22.160Z,21.20
2022-10-15T01:42:50.135Z,21.19
2022-10-15T01:45:18.008Z,21.19
2022-10-15T01:47:45.715Z,21.18
2022-10-15T01:50:13.453Z,21.20
2022-10-15T01:52:41.159Z,21.17
2022-10-15T01:55:08.937Z,21.19
2022-10-15T01:57:36.698Z,21.20
2022-10-15T02:00:05.109Z,21.18
2022-10-15T02:02:32.768Z,21.18
2022-10-15T02:05:00.428Z,21.17
2022-10-15T02:07:28.154Z,21.18
2022-10-15T02:09:55.887Z,21.17
2022-10-15T02:12:24.239Z,21.16
2022-10-15T02:14:52.124Z,21.16
2022-10-15T02:17:20.003Z,21.16
2022-10-15T02:19:47.843Z,21.16
2022-10-15T02:22:15.568Z,21.16
2022-10-15T02:24:43.258Z,21.15
2022-10-15T02:27:10.974Z,21.14
2022-10-15T02:29:38.761Z,21.14
2022-10-15T02:32:06.423Z,21.16
2022-10-15T02:34:34.132Z,21.16
2022-10-15T02:37:01.810Z,21.14
2022-10-15T02:39:29.530Z,21.14
2022-10-15T02:41:57.225Z,21.16
2022-10-15T02:44:25.184Z,21.16
2022-10-15T02:46:53.103Z,21.17
2022-10-15T02:49:20.829Z,21.16
2022-10-15T02:51:48.531Z,21.17
2022-10-15T02:54:16.461Z,21.17
2022-10-15T02:56:44.196Z,21.17
2022-10-15T02:59:11.897Z,21.16
2022-10-15T03:01:39.656Z,21.17
2022-10-15T03:04:07.582Z,21.17
2022-10-15T03:06:35.537Z,21.18
2022-10-15T03:09:03.772Z,21.17
2022-10-15T03:11:31.480Z,21.17
2022-10-15T03:13:59.301Z,21.18
2022-10-15T03:16:27.245Z,21.18
2022-10-15T03:18:54.916Z,21.16
2022-10-15T03:21:22.646Z,21.17
2022-10-15T03:23:50.391Z,21.16
2022-10-15T03:26:18.192Z,21.17
2022-10-15T03:28:45.998Z,21.16
2022-10-15T03:31:14.435Z,21.16
2022-10-15T03:33:42.114Z,21.16
2022-10-15T03:36:12.271Z,21.15
2022-10-15T03:38:39.937Z,21.16
2022-10-15T03:43:59.343Z,21.14
2022-10-15T03:46:27.052Z,21.14
2022-10-15T03:48:54.724Z,21.14
2022-10-15T03:51:24.631Z,21.14
2022-10-15T03:53:54.402Z,21.14
2022-10-15T03:56:22.104Z,21.14
2022-10-15T03:58:49.799Z,21.14
2022-10-15T04:01:17.770Z,21.13
2022-10-15T04:03:45.592Z,21.13
2022-10-15T04:06:13.253Z,21.13
2022-10-15T04:08:41.369Z,21.12
2022-10-15T04:11:09.125Z,21.12
2022-10-15T04:13:36.794Z,21.11
2022-10-15T04:16:04.526Z,21.11
2022-10-15T04:18:32.270Z,21.11
2022-10-15T04:20:59.976Z,21.11
2022-10-15T04:23:27.692Z,21.10
2022-10-15T04:25:55.508Z,21.10
2022-10-15T04:28:23.251Z,21.10
2022-10-15T04:30:50.989Z,21.09
2022-10-15T04:33:18.886Z,21.10
2022-10-15T04:35:46.569Z,21.10
2022-10-15T04:38:14.463Z,21.11
2022-10-15T04:40:42.293Z,21.11
2022-10-15T04:43:09.999Z,21.10
2022-10-15T04:45:37.859Z,21.12
2022-10-15T04:48:05.720Z,23.08
2022-10-15T04:50:33.446Z,26.65
2022-10-15T04:53:01.132Z,29.67
2022-10-15T04:55:28.933Z,31.78
2022-10-15T04:57:56.608Z,33.22
2022-10-15T05:00:24.308Z,33.89
2022-10-15T05:02:52.002Z,34.63
2022-10-15T05:05:19.659Z,35.01
2022-10-15T05:07:47.568Z,34.85
2022-10-15T05:10:15.293Z,34.40
2022-10-15T05:15:15.687Z,33.19
2022-10-15T05:17:43.362Z,32.55
2022-10-15T05:20:11.056Z,31.89
2022-10-15T05:22:38.853Z,31.25
2022-10-15T05:25:06.545Z,30.59
2022-10-15T05:27:34.232Z,29.98
2022-10-15T05:30:02.127Z,29.44
2022-10-15T05:32:29.974Z,28.83
2022-10-15T05:34:57.691Z,28.31
2022-10-15T05:37:25.530Z,27.91
2022-10-15T05:39:53.490Z,27.50
2022-10-15T05:42:21.178Z,27.15
2022-10-15T05:44:48.878Z,26.80
2022-10-15T05:47:16.564Z,26.45
2022-10-15T05:49:44.222Z,26.18
2022-10-15T05:52:12.189Z,25.93
2022-10-15T05:54:39.871Z,25.69
2022-10-15T05:57:07.605Z,25.50
2022-10-15T05:59:35.349Z,25.29
2022-10-15T06:02:03.118Z,25.07
2022-10-15T06:04:35.478Z,24.91
2022-10-15T06:07:03.686Z,24.77
2022-10-15T06:09:31.369Z,24.65
2022-10-15T06:11:59.133Z,24.47
2022-10-15T06:14:26.968Z,24.33
2022-10-15T06:16:55.246Z,24.21
2022-10-15T06:19:23.237Z,24.05
2022-10-15T06:21:50.940Z,23.93
2022-10-15T06:24:18.661Z,23.83
2022-10-15T06:26:46.437Z,23.75
2022-10-15T06:29:14.095Z,23.68
2022-10-15T06:31:41.747Z,23.58
2022-10-15T06:34:09.476Z,23.51
2022-10-15T06:36:37.179Z,23.41
2022-10-15T06:39:05.079Z,23.31
2022-10-15T06:41:32.860Z,23.25
2022-10-15T06:46:52.685Z,23.10
2022-10-15T06:49:20.353Z,23.07
2022-10-15T06:51:48.263Z,23.43
2022-10-15T06:54:16.152Z,24.90
2022-10-15T06:56:43.852Z,26.61
2022-10-15T06:59:11.804Z,27.62
2022-10-15T07:01:41.507Z,28.00
2022-10-15T07:04:10.058Z,28.09
2022-10-15T07:06:37.762Z,28.05
2022-10-15T07:09:05.684Z,27.88
2022-10-15T07:11:33.465Z,27.60
2022-10-15T07:14:01.203Z,27.35
2022-10-15T07:16:29.039Z,27.00
2022-10-15T07:18:56.689Z,26.71
2022-10-15T07:21:24.584Z,26.42
2022-10-15T07:23:52.269Z,26.09
2022-10-15T07:26:20.053Z,25.88
2022-10-15T07:28:48.043Z,25.70
2022-10-15T07:31:15.807Z,25.46
2022-10-15T07:33:43.520Z,25.24
2022-10-15T07:36:11.231Z,24.97
2022-10-15T07:38:40.173Z,24.75
2022-10-15T07:41:07.827Z,24.60
2022-10-15T07:43:35.561Z,24.45
2022-10-15T07:46:03.357Z,24.32
2022-10-15T07:48:31.047Z,24.18
2022-10-15T07:50:58.934Z,24.04
2022-10-15T07:53:26.617Z,23.87
2022-10-15T07:55:54.340Z,23.75
2022-10-15T07:58:22.198Z,23.64
2022-10-15T08:00:49.953Z,23.53
2022-10-15T08:03:17.711Z,23.42
2022-10-15T08:05:45.600Z,23.33
2022-10-15T08:08:13.299Z,23.22
2022-10-15T08:10:41.087Z,23.10
2022-10-15T08:13:09.060Z,23.05
2022-10-15T08:15:36.760Z,22.99
2022-10-15T08:18:04.798Z,22.90
2022-10-15T08:20:32.482Z,22.83
2022-10-15T08:23:00.241Z,22.77
2022-10-15T08:25:28.074Z,22.70
2022-10-15T08:27:56.495Z,22.69
2022-10-15T08:30:24.228Z,22.66
2022-10-15T08:32:51.873Z,22.64
2022-10-15T08:35:19.645Z,22.61
2022-10-15T08:37:47.412Z,22.58
2022-10-15T08:40:15.281Z,22.54
2022-10-15T08:42:42.993Z,22.48
2022-10-15T08:45:10.722Z,22.44
2022-10-15T08:47:38.446Z,22.43
2022-10-15T08:50:06.223Z,22.41
2022-10-15T08:52:33.876Z,22.38
2022-10-15T08:55:01.720Z,22.35
2022-10-15T08:57:29.410Z,22.32
2022-10-15T08:59:57.096Z,22.30
2022-10-15T09:02:25.023Z,22.27
2022-10-15T09:04:52.703Z,22.25
2022-10-15T09:07:20.569Z,22.22
2022-10-15T09:09:48.612Z,22.20
2022-10-15T09:12:16.329Z,22.18
2022-10-15T09:14:44.048Z,22.16
2022-10-15T09:17:11.722Z,22.13
2022-10-15T09:19:39.470Z,22.10
2022-10-15T09:22:07.322Z,22.11
2022-10-15T09:24:35.309Z,22.09
2022-10-15T09:27:03.086Z,22.07
2022-10-15T09:29:31.209Z,22.04
2022-10-15T09:31:59.048Z,22.05
2022-10-15T09:34:26.748Z,22.01
2022-10-15T09:36:54.426Z,22.00
2022-10-15T09:39:22.064Z,21.98
2022-10-15T09:41:51.658Z,21.96
2022-10-15T09:44:21.211Z,21.94
2022-10-15T09:46:50.359Z,21.91
2022-10-15T09:49:19.448Z,21.91
2022-10-15T09:51:47.165Z,21.90
2022-10-15T09:54:14.950Z,21.91
2022-10-15T09:56:42.612Z,21.89
2022-10-15T09:59:10.374Z,21.87
2022-10-15T10:01:38.159Z,21.85
2022-10-15T10:04:05.913Z,21.84
2022-10-15T10:06:33.661Z,21.82
2022-10-15T10:09:01.342Z,21.82
2022-10-15T10:11:29.042Z,21.82
2022-10-15T10:13:56.735Z,21.80
2022-10-15T10:16:24.455Z,21.77
2022-10-15T10:18:52.186Z,21.76
2022-10-15T10:21:19.953Z,21.74
2022-10-15T10:23:48.294Z,21.75
2022-10-15T10:26:16.035Z,21.74
2022-10-15T10:28:44.536Z,21.73
2022-10-15T10:31:14.567Z,21.73
2022-10-15T10:33:42.367Z,21.73
2022-10-15T10:38:42.883Z,21.77
2022-10-15T10:41:10.673Z,21.83
2022-10-15T10:43:39.433Z,21.79
2022-10-15T10:46:07.396Z,21.77
2022-10-15T10:48:35.306Z,21.82
2022-10-15T10:51:03.165Z,21.78
2022-10-15T10:53:30.838Z,21.74
2022-10-15T10:55:58.699Z,21.73
2022-10-15T10:58:27.261Z,21.71
2022-10-15T11:00:55.720Z,21.75
2022-10-15T11:03:23.640Z,21.72
2022-10-15T11:05:51.450Z,21.69
2022-10-15T11:08:19.223Z,21.67
2022-10-15T11:10:46.928Z,21.63
2022-10-15T11:13:14.588Z,21.62
2022-10-15T11:15:42.370Z,21.62
2022-10-15T11:18:10.154Z,21.66
2022-10-15T11:20:52.921Z,21.66
2022-10-15T11:23:27.252Z,21.66
2022-10-15T11:25:55.277Z,21.62
2022-10-15T11:28:23.321Z,21.60
2022-10-15T11:30:51.153Z,21.59
2022-10-15T11:33:19.052Z,21.59
2022-10-15T11:35:54.594Z,21.58
2022-10-15T11:38:22.656Z,21.59
2022-10-15T11:40:50.381Z,21.58
2022-10-15T11:43:18.054Z,21.58
2022-10-15T11:45:48.687Z,21.59
2022-10-15T11:48:16.491Z,21.58
2022-10-15T11:50:44.234Z,21.58
2022-10-15T11:53:12.147Z,21.60
2022-10-15T11:55:39.877Z,21.59
2022-10-15T11:58:07.614Z,21.60
2022-10-15T12:00:35.489Z,21.60
2022-10-15T12:03:03.186Z,21.58
2022-10-15T12:05:30.878Z,21.56
2022-10-15T12:08:01.791Z,21.56
2022-10-15T12:10:31.023Z,21.58
2022-10-15T12:12:59.124Z,21.64
2022-10-15T12:15:26.888Z,21.67
2022-10-15T12:17:54.592Z,21.66
2022-10-15T12:20:22.520Z,21.65
2022-10-15T12:22:50.428Z,21.67
2022-10-15T12:25:18.149Z,21.67
2022-10-15T12:27:46.133Z,21.69
2022-10-15T12:30:14.066Z,21.70
2022-10-15T12:32:41.880Z,21.71
2022-10-15T12:35:09.616Z,21.73
2022-10-15T12:37:37.414Z,21.72
2022-10-15T12:40:05.382Z,21.75
2022-10-15T12:45:25.156Z,21.76
2022-10-15T12:47:54.096Z,21.77
2022-10-15T12:50:21.781Z,21.77
2022-10-15T12:52:50.703Z,21.76
2022-10-15T12:55:18.447Z,21.76
2022-10-15T12:57:46.569Z,21.77
2022-10-15T13:00:24.158Z,21.76
2022-10-15T13:02:52.170Z,21.76
2022-10-15T13:05:19.858Z,21.77
2022-10-15T13:07:47.791Z,21.79
2022-10-15T13:10:15.634Z,21.79
2022-10-15T13:12:43.363Z,21.77
2022-10-15T13:15:11.433Z,21.77
2022-10-15T13:17:39.150Z,21.75
2022-10-15T13:20:07.992Z,21.76
2022-10-15T13:22:35.809Z,21.75
2022-10-15T13:25:03.530Z,21.75
2022-10-15T13:27:32.072Z,22.32
2022-10-15T13:29:59.767Z,24.52
2022-10-15T13:32:27.614Z,28.23
2022-10-15T13:34:56.208Z,31.33
2022-10-15T13:37:23.999Z,32.61
2022-10-15T13:39:51.691Z,32.80
2022-10-15T13:42:19.532Z,32.40
2022-10-15T13:44:47.190Z,31.71
2022-10-15T13:47:14.996Z,31.01
2022-10-15T13:49:42.671Z,30.33
2022-10-15T13:52:10.327Z,29.74
2022-10-15T13:54:38.005Z,29.15
2022-10-15T13:57:05.727Z,28.68
2022-10-15T13:59:35.069Z,28.27
2022-10-15T14:02:04.341Z,27.93
2022-10-15T14:04:32.202Z,27.55
2022-10-15T14:07:02.122Z,27.23
2022-10-15T14:09:30.641Z,26.97
2022-10-15T14:12:02.217Z,26.68
2022-10-15T14:14:31.229Z,26.37
2022-10-15T14:16:59.035Z,26.14
2022-10-15T14:19:29.898Z,25.92
2022-10-15T14:21:57.604Z,25.70
2022-10-15T14:24:25.493Z,25.48
2022-10-15T14:26:53.277Z,25.28
2022-10-15T14:29:21.092Z,25.05
2022-10-15T14:31:48.759Z,24.93
2022-10-15T14:36:49.581Z,24.60
2022-10-15T14:39:17.384Z,24.42
2022-10-15T14:41:45.032Z,24.30
2022-10-15T14:44:12.831Z,24.16
2022-10-15T14:46:40.685Z,24.06
2022-10-15T14:49:08.338Z,23.94
2022-10-15T14:51:36.127Z,23.84
2022-10-15T14:54:03.961Z,23.73
2022-10-15T14:56:31.639Z,23.66
2022-10-15T14:58:59.493Z,23.55
2022-10-15T15:01:27.648Z,23.49
2022-10-15T15:03:55.392Z,23.41
2022-10-15T15:06:23.183Z,23.34
2022-10-15T15:08:50.935Z,23.27
2022-10-15T15:11:18.607Z,23.20
2022-10-15T15:13:46.293Z,23.13
2022-10-15T15:16:14.015Z,23.08
2022-10-15T15:18:43.955Z,23.02
2022-10-15T15:21:11.816Z,22.95
2022-10-15T15:23:39.542Z,22.89
2022-10-15T15:26:07.218Z,22.84
2022-10-15T15:28:35.003Z,22.81
2022-10-15T15:31:02.826Z,22.79
2022-10-15T15:33:30.593Z,22.97
2022-10-15T15:35:58.236Z,23.67
2022-10-15T15:38:30.780Z,24.66
2022-10-15T15:40:59.210Z,25.63
2022-10-15T15:43:27.125Z,26.12
2022-10-15T15:45:54.832Z,26.30
2022-10-15T15:48:22.528Z,26.31
2022-10-15T15:50:50.219Z,26.25
2022-10-15T15:53:17.959Z,26.11
2022-10-15T15:55:45.665Z,25.97
2022-10-15T15:58:13.380Z,25.80
2022-10-15T16:00:41.055Z,25.62
2022-10-15T16:03:09.098Z,25.37
2022-10-15T16:05:38.621Z,25.21
2022-10-15T16:08:06.323Z,25.00
2022-10-15T16:10:34.573Z,24.82
2022-10-15T16:13:02.422Z,24.62
2022-10-15T16:15:30.135Z,24.44
2022-10-15T16:17:57.853Z,24.31
2022-10-15T16:20:25.517Z,24.16
2022-10-15T16:22:53.265Z,24.03
2022-10-15T16:25:20.922Z,23.93
2022-10-15T16:27:49.398Z,23.79
2022-10-15T16:30:17.071Z,23.68
2022-10-15T16:32:44.828Z,23.59
2022-10-15T16:35:12.642Z,23.49
2022-10-15T16:37:40.309Z,23.41
2022-10-15T16:40:08.074Z,23.30
2022-10-15T16:42:35.837Z,23.20
2022-10-15T16:45:03.579Z,23.13
2022-10-15T16:47:31.261Z,23.06
2022-10-15T16:49:59.043Z,23.01
2022-10-15T16:52:27.266Z,22.94
2022-10-15T16:54:55.182Z,22.88
2022-10-15T16:57:23.066Z,22.81
2022-10-15T16:59:51.488Z,22.77
2022-10-15T17:02:19.392Z,22.75
2022-10-15T17:04:47.189Z,22.72
2022-10-15T17:07:14.871Z,22.69
2022-10-15T17:09:44.956Z,22.67
2022-10-15T17:12:12.771Z,22.64
2022-10-15T17:14:40.443Z,22.59
2022-10-15T17:17:08.296Z,22.64
2022-10-15T17:19:35.979Z,22.80
2022-10-15T17:22:03.728Z,23.00
2022-10-15T17:24:31.443Z,23.28
2022-10-15T17:26:59.231Z,23.64
2022-10-15T17:29:30.587Z,24.02
2022-10-15T17:32:01.015Z,24.37
2022-10-15T17:34:29.013Z,24.52
2022-10-15T17:36:56.890Z,24.56
2022-10-15T17:39:24.602Z,24.54
2022-10-15T17:41:52.344Z,24.43
2022-10-15T17:44:20.071Z,24.31
2022-10-15T17:49:20.643Z,24.04
2022-10-15T17:51:48.315Z,23.91
2022-10-15T17:54:16.216Z,23.78
2022-10-15T17:56:43.883Z,23.66
2022-10-15T17:59:11.581Z,23.56
2022-10-15T18:01:57.894Z,23.44
2022-10-15T18:04:26.501Z,23.31
2022-10-15T18:06:54.172Z,23.23
2022-10-15T18:09:22.055Z,23.15
2022-10-15T18:11:49.804Z,23.10
2022-10-15T18:14:17.542Z,23.02
2022-10-15T18:16:45.927Z,22.98
2022-10-15T18:19:13.631Z,22.93
2022-10-15T18:21:42.638Z,22.88
2022-10-15T18:24:13.460Z,22.83
2022-10-15T18:46:45.731Z,22.37
2022-10-15T18:49:13.532Z,22.35
2022-10-15T18:51:41.215Z,22.32
2022-10-15T18:54:09.009Z,22.31
2022-10-15T18:56:36.680Z,22.29
2022-10-15T18:59:04.529Z,22.27
2022-10-15T19:01:32.841Z,22.25
2022-10-15T19:04:00.659Z,22.20
2022-10-15T19:06:28.362Z,22.18
2022-10-15T19:11:28.738Z,22.15
2022-10-15T19:13:56.418Z,22.12
2022-10-15T19:16:24.193Z,22.10
2022-10-15T19:18:51.871Z,22.07
2022-10-15T19:21:19.664Z,22.05
2022-10-15T19:23:47.373Z,22.03
2022-10-15T19:26:15.708Z,22.03
2022-10-15T19:28:43.533Z,22.00
2022-10-15T19:31:11.234Z,21.99
2022-10-15T19:33:38.981Z,21.98
2022-10-15T19:36:06.770Z,21.97
2022-10-15T19:38:34.525Z,21.96
2022-10-15T19:41:02.327Z,21.95
2022-10-15T19:43:30.005Z,21.95
2022-10-15T19:45:58.093Z,21.93
2022-10-15T19:48:25.803Z,21.92
2022-10-15T19:50:53.939Z,21.90
2022-10-15T19:53:21.682Z,21.87
2022-10-15T19:55:49.487Z,21.85
2022-10-15T19:58:17.163Z,21.84
2022-10-15T20:00:48.320Z,21.81
2022-10-15T20:03:16.001Z,21.83
2022-10-15T20:05:43.643Z,21.83
2022-10-15T20:08:11.418Z,21.82
2022-10-15T20:10:39.170Z,21.82
2022-10-15T20:13:07.491Z,21.83
2022-10-15T20:18:02.833Z,21.79
2022-10-15T20:20:30.567Z,21.80
2022-10-15T20:22:58.319Z,21.79
2022-10-15T20:25:26.174Z,21.78
2022-10-15T20:27:54.587Z,21.76
2022-10-15T20:30:22.335Z,21.76
2022-10-15T20:32:49.989Z,21.74
2022-10-15T20:35:19.616Z,21.69
2022-10-15T20:37:49.718Z,21.69
2022-10-15T20:40:17.802Z,21.69
2022-10-15T20:42:47.913Z,21.69
2022-10-15T20:45:16.187Z,21.69
2022-10-15T20:47:44.149Z,21.69
2022-10-15T20:50:13.245Z,21.69
2022-10-15T20:52:41.092Z,21.70
2022-10-15T20:55:08.763Z,21.70
2022-10-15T20:57:36.916Z,21.71
2022-10-15T21:00:04.767Z,21.74
2022-10-15T21:02:32.419Z,21.74
2022-10-15T21:05:03.474Z,21.73
2022-10-15T21:07:34.236Z,21.73
2022-10-15T21:10:02.310Z,21.73
2022-10-15T21:12:30.012Z,21.72
2022-10-15T21:14:58.307Z,21.72
2022-10-15T21:17:26.251Z,21.72
2022-10-15T21:19:54.249Z,21.72
2022-10-15T21:22:21.961Z,21.72
2022-10-15T21:24:49.759Z,21.67
2022-10-15T21:27:17.710Z,21.67
2022-10-15T21:29:49.493Z,21.65
2022-10-15T21:32:17.173Z,21.65
2022-10-15T21:34:44.911Z,21.65
2022-10-15T21:37:12.799Z,21.66
2022-10-15T21:39:40.518Z,21.66
2022-10-15T21:42:08.319Z,21.65
2022-10-15T21:44:36.068Z,21.65
2022-10-15T21:47:05.176Z,21.63
2022-10-15T21:49:32.893Z,21.60
2022-10-15T21:52:00.611Z,21.61
2022-10-15T21:54:28.578Z,21.62
2022-10-15T21:56:56.295Z,21.61
2022-10-15T21:59:24.299Z,21.63
2022-10-15T22:01:52.173Z,21.63
2022-10-15T22:04:20.640Z,21.61
2022-10-15T22:06:48.398Z,21.61
2022-10-15T22:09:16.247Z,21.62
2022-10-15T22:11:43.996Z,21.62
2022-10-15T22:14:11.723Z,21.57
2022-10-15T22:16:39.415Z,21.59
2022-10-15T22:19:08.624Z,21.59
2022-10-15T22:21:36.527Z,21.61
2022-10-15T22:24:04.480Z,21.62
2022-10-15T22:26:32.662Z,21.62
2022-10-15T22:29:00.482Z,21.61
2022-10-15T22:31:28.254Z,21.61
2022-10-15T22:33:57.905Z,21.61
2022-10-15T22:36:25.871Z,21.60
2022-10-15T22:38:53.545Z,21.59
2022-10-15T22:41:21.485Z,21.61
2022-10-15T22:43:49.183Z,21.60
2022-10-15T22:46:16.935Z,21.60
2022-10-15T22:48:44.706Z,21.61
2022-10-15T22:51:12.493Z,21.59
2022-10-15T22:53:40.217Z,21.60
2022-10-15T22:56:08.140Z,21.60
2022-10-15T22:58:35.873Z,21.59
2022-10-15T23:01:03.817Z,21.60
2022-10-15T23:03:31.836Z,21.57
2022-10-15T23:05:59.553Z,21.58
2022-10-15T23:08:27.541Z,21.58
2022-10-15T23:10:55.253Z,21.59
2022-10-15T23:13:22.964Z,21.58
2022-10-15T23:15:50.662Z,21.57
2022-10-15T23:18:18.399Z,21.57
2022-10-15T23:20:46.088Z,21.57
2022-10-15T23:23:13.818Z,21.56
2022-10-15T23:25:41.543Z,21.56
2022-10-15T23:28:09.282Z,21.56
2022-10-15T23:30:36.978Z,21.55
2022-10-15T23:33:04.698Z,21.56
2022-10-15T23:35:32.727Z,21.56
2022-10-15T23:38:00.459Z,21.55
2022-10-15T23:40:28.342Z,21.56
2022-10-15T23:42:56.193Z,21.54
2022-10-15T23:45:23.912Z,21.54
2022-10-15T23:47:51.777Z,21.54
2022-10-15T23:50:19.484Z,21.53
2022-10-15T23:52:47.417Z,21.52
2022-10-15T23:55:15.137Z,21.52
2022-10-15T23:57:42.851Z,21.53
